createdAt,value
2022-10-29T00:00:01.855Z,86.92
2022-10-29T00:02:57.463Z,87.02
2022-10-29T00:05:44.932Z,87.10
2022-10-29T00:08:14.074Z,87.39
2022-10-29T00:10:43.003Z,87.22
2022-10-29T00:13:11.931Z,87.36
2022-10-29T00:15:43.745Z,87.03
2022-10-29T00:18:12.674Z,87.44
2022-10-29T00:20:41.825Z,87.32
2022-10-29T00:23:10.806Z,87.59
2022-10-29T00:25:40.008Z,87.75
2022-10-29T00:28:09.954Z,87.63
2022-10-29T00:30:39.124Z,87.41
2022-10-29T00:33:27.827Z,87.45
2022-10-29T00:35:57.836Z,87.49
2022-10-29T00:38:27.232Z,87.41
2022-10-29T00:40:56.738Z,87.71
2022-10-29T00:43:27.742Z,87.41
2022-10-29T00:46:00.820Z,87.70
2022-10-29T00:48:35.976Z,87.52
2022-10-29T00:51:24.307Z,87.73
2022-10-29T00:54:14.412Z,87.24
2022-10-29T00:56:48.761Z,87.42
2022-10-29T00:59:36.575Z,87.42
2022-10-29T01:02:05.984Z,87.53
2022-10-29T01:04:37.446Z,87.55
2022-10-29T01:07:07.380Z,87.37
2022-10-29T01:09:36.549Z,87.56
2022-10-29T01:12:50.885Z,87.36
2022-10-29T01:15:45.786Z,87.65
2022-10-29T01:18:21.535Z,87.73
2022-10-29T01:21:29.856Z,87.58
2022-10-29T01:24:41.293Z,87.38
2022-10-29T01:27:39.363Z,87.71
2022-10-29T01:30:17.467Z,87.63
2022-10-29T01:33:12.480Z,87.67
2022-10-29T01:35:50.883Z,87.91
2022-10-29T01:38:30.029Z,87.47
2022-10-29T01:41:24.825Z,88.03
2022-10-29T01:43:58.499Z,88.02
2022-10-29T01:46:32.956Z,87.83
2022-10-29T01:49:09.210Z,87.84
2022-10-29T01:51:39.286Z,87.82
2022-10-29T01:54:11.160Z,87.80
2022-10-29T01:56:40.215Z,87.82
2022-10-29T01:59:22.919Z,87.88
2022-10-29T02:02:13.846Z,87.85
2022-10-29T02:05:07.532Z,87.92
2022-10-29T02:07:45.504Z,87.87
2022-10-29T02:10:24.532Z,87.99
2022-10-29T02:12:55.978Z,88.15
2022-10-29T02:15:30.361Z,88.04
2022-10-29T02:18:01.294Z,88.15
2022-10-29T02:20:32.442Z,88.04
2022-10-29T02:23:01.535Z,88.12
2022-10-29T02:25:30.974Z,88.24
2022-10-29T02:28:01.279Z,88.45
2022-10-29T02:30:30.312Z,88.43
2022-10-29T02:32:59.733Z,88.89
2022-10-29T02:35:48.714Z,88.88
2022-10-29T02:38:17.865Z,88.71
2022-10-29T02:40:46.827Z,88.80
2022-10-29T02:43:15.818Z,89.13
2022-10-29T02:45:44.996Z,89.19
2022-10-29T02:48:13.965Z,89.42
2022-10-29T02:51:03.010Z,89.35
2022-10-29T02:53:32.171Z,90.15
2022-10-29T02:56:01.186Z,90.11
2022-10-29T02:58:48.670Z,90.01
2022-10-29T03:01:36.150Z,89.89
2022-10-29T03:04:05.500Z,89.95
2022-10-29T03:06:35.803Z,89.94
2022-10-29T03:09:04.994Z,90.11
2022-10-29T03:11:52.752Z,90.13
2022-10-29T03:14:21.882Z,90.48
2022-10-29T03:16:50.836Z,90.49
2022-10-29T03:19:19.780Z,90.78
2022-10-29T03:21:50.314Z,91.24
2022-10-29T03:24:19.255Z,92.45
2022-10-29T03:26:48.174Z,92.36
2022-10-29T03:29:17.354Z,92.64
2022-10-29T03:31:46.303Z,93.27
2022-10-29T03:34:15.219Z,93.66
2022-10-29T03:36:44.368Z,93.64
2022-10-29T03:39:14.730Z,92.41
2022-10-29T03:41:43.661Z,92.96
2022-10-29T03:44:12.795Z,93.05
2022-10-29T03:46:41.747Z,92.90
2022-10-29T03:49:11.248Z,91.99
2022-10-29T03:51:40.498Z,92.36
2022-10-29T03:54:09.674Z,92.02
2022-10-29T03:56:40.229Z,91.98
2022-10-29T03:59:27.743Z,91.69
2022-10-29T04:01:56.982Z,91.66
2022-10-29T04:04:26.016Z,91.72
2022-10-29T04:07:14.377Z,91.63
2022-10-29T04:10:01.789Z,91.49
2022-10-29T04:12:32.363Z,91.34
2022-10-29T04:15:20.016Z,91.12
2022-10-29T04:17:52.076Z,90.98
2022-10-29T04:21:05.978Z,91.00
2022-10-29T04:29:28.495Z,90.92
2022-10-29T04:31:57.445Z,90.95
2022-10-29T04:34:26.618Z,90.85
2022-10-29T04:36:55.577Z,90.99
2022-10-29T04:39:24.535Z,90.56
2022-10-29T04:41:53.697Z,90.79
2022-10-29T04:44:42.452Z,90.82
2022-10-29T04:47:11.571Z,90.40
2022-10-29T04:49:40.648Z,90.63
2022-10-29T04:52:09.831Z,90.44
2022-10-29T04:54:39.138Z,90.78
2022-10-29T04:57:08.275Z,90.89
2022-10-29T04:59:37.210Z,90.45
2022-10-29T05:02:07.761Z,90.22
2022-10-29T05:04:36.711Z,90.58
2022-10-29T05:07:23.973Z,91.75
2022-10-29T05:09:53.157Z,91.89
2022-10-29T05:12:22.078Z,92.35
2022-10-29T05:14:51.226Z,92.44
2022-10-29T05:17:21.605Z,92.11
2022-10-29T05:19:50.776Z,92.41
2022-10-29T05:22:19.846Z,92.95
2022-10-29T05:24:49.053Z,93.10
2022-10-29T05:27:36.779Z,93.07
2022-10-29T05:30:07.007Z,93.22
2022-10-29T05:32:37.364Z,93.57
2022-10-29T05:35:07.076Z,93.57
2022-10-29T05:37:36.012Z,93.24
2022-10-29T05:40:24.367Z,93.61
2022-10-29T05:42:53.397Z,93.04
2022-10-29T05:45:41.051Z,93.07
2022-10-29T05:50:47.128Z,93.75
2022-10-29T05:53:17.200Z,93.78
2022-10-29T05:56:04.959Z,93.31
2022-10-29T05:58:34.157Z,94.05
2022-10-29T06:01:06.710Z,93.64
2022-10-29T06:03:37.690Z,93.44
2022-10-29T06:06:06.984Z,93.64
2022-10-29T06:08:54.442Z,93.58
2022-10-29T06:11:23.591Z,93.87
2022-10-29T06:14:10.859Z,93.85
2022-10-29T06:16:40.056Z,93.26
2022-10-29T06:19:10.975Z,92.92
2022-10-29T06:21:40.157Z,93.18
2022-10-29T06:24:10.650Z,92.91
2022-10-29T06:26:41.141Z,93.07
2022-10-29T06:29:10.084Z,92.84
2022-10-29T06:31:57.832Z,92.30
2022-10-29T06:34:46.734Z,92.26
2022-10-29T06:37:38.421Z,91.87
2022-10-29T06:40:08.712Z,91.43
2022-10-29T06:42:37.670Z,91.36
2022-10-29T06:45:07.814Z,90.84
2022-10-29T06:47:55.450Z,89.72
2022-10-29T06:50:26.885Z,89.04
2022-10-29T06:52:57.506Z,89.22
2022-10-29T06:55:45.236Z,87.73
2022-10-29T06:58:16.528Z,87.37
2022-10-29T07:00:46.341Z,87.58
2022-10-29T07:03:15.719Z,87.08
2022-10-29T07:05:46.305Z,85.87
2022-10-29T07:08:15.273Z,86.21
2022-10-29T07:10:44.432Z,85.50
2022-10-29T07:13:13.360Z,85.83
2022-10-29T07:15:42.507Z,84.74
2022-10-29T07:18:12.841Z,84.37
2022-10-29T07:20:43.576Z,84.99
2022-10-29T07:23:14.722Z,84.20
2022-10-29T07:25:44.010Z,83.61
2022-10-29T07:28:14.764Z,83.14
2022-10-29T07:30:43.970Z,84.13
2022-10-29T07:33:12.971Z,83.73
2022-10-29T07:36:01.272Z,83.10
2022-10-29T07:38:31.827Z,83.63
2022-10-29T07:41:00.791Z,83.28
2022-10-29T07:43:29.975Z,81.92
2022-10-29T07:45:58.971Z,82.46
2022-10-29T07:48:28.143Z,82.35
2022-10-29T07:51:00.050Z,81.76
2022-10-29T07:53:31.356Z,82.00
2022-10-29T07:56:18.865Z,80.83
2022-10-29T07:59:08.924Z,80.47
2022-10-29T08:01:38.141Z,80.58
2022-10-29T08:04:07.127Z,80.35
2022-10-29T08:06:36.258Z,80.65
2022-10-29T08:09:06.795Z,79.66
2022-10-29T08:11:35.811Z,79.70
2022-10-29T08:14:23.121Z,79.41
2022-10-29T08:16:54.134Z,79.28
2022-10-29T08:19:23.454Z,78.77
2022-10-29T08:21:52.651Z,79.12
2022-10-29T08:24:23.054Z,78.12
2022-10-29T08:26:52.275Z,78.39
2022-10-29T08:29:39.580Z,78.38
2022-10-29T08:32:27.136Z,78.09
2022-10-29T08:34:56.777Z,78.30
2022-10-29T08:37:25.725Z,78.36
2022-10-29T08:39:56.272Z,78.24
2022-10-29T08:42:42.271Z,78.50
2022-10-29T08:45:24.900Z,78.47
2022-10-29T08:48:23.961Z,78.58
2022-10-29T08:50:58.535Z,78.51
2022-10-29T08:53:36.801Z,78.08
2022-10-29T08:56:14.484Z,78.02
2022-10-29T08:58:51.654Z,78.18
2022-10-29T09:01:24.439Z,78.32
2022-10-29T09:03:54.074Z,78.24
2022-10-29T09:06:33.884Z,77.78
2022-10-29T09:09:17.510Z,76.21
2022-10-29T09:12:45.964Z,75.35
2022-10-29T09:15:57.163Z,73.97
2022-10-29T09:18:59.668Z,73.71
2022-10-29T09:21:35.810Z,74.06
2022-10-29T09:24:14.503Z,73.71
2022-10-29T09:26:57.178Z,74.39
2022-10-29T09:30:02.413Z,74.71
2022-10-29T09:32:40.019Z,74.64
2022-10-29T09:35:15.590Z,75.14
2022-10-29T09:38:08.954Z,75.39
2022-10-29T09:40:40.085Z,74.88
2022-10-29T09:43:25.269Z,74.69
2022-10-29T09:46:02.527Z,75.29
2022-10-29T09:48:37.353Z,74.10
2022-10-29T09:51:22.564Z,73.95
2022-10-29T09:53:52.371Z,73.85
2022-10-29T09:56:21.741Z,73.66
2022-10-29T09:58:57.884Z,73.24
2022-10-29T10:01:28.492Z,73.09
2022-10-29T10:06:51.070Z,73.25
2022-10-29T10:09:20.050Z,73.32
2022-10-29T10:11:52.938Z,73.56
2022-10-29T10:14:23.458Z,73.51
2022-10-29T10:16:59.763Z,73.53
2022-10-29T10:19:30.532Z,73.29
2022-10-29T10:22:24.272Z,73.24
2022-10-29T10:25:34.532Z,72.69
2022-10-29T10:28:22.700Z,72.33
2022-10-29T10:31:07.964Z,71.81
2022-10-29T10:33:45.139Z,72.59
2022-10-29T10:36:32.296Z,72.14
2022-10-29T10:39:02.291Z,71.96
2022-10-29T10:41:35.438Z,72.58
2022-10-29T10:44:06.468Z,72.13
2022-10-29T10:46:40.008Z,72.60
2022-10-29T10:49:17.081Z,72.42
2022-10-29T10:51:50.063Z,71.56
2022-10-29T10:54:42.100Z,72.02
2022-10-29T10:57:23.020Z,71.67
2022-10-29T11:00:00.571Z,71.54
2022-10-29T11:02:40.628Z,72.26
2022-10-29T11:05:17.822Z,71.93
2022-10-29T11:07:54.066Z,72.28
2022-10-29T11:10:28.903Z,71.94
2022-10-29T11:13:21.956Z,71.82
2022-10-29T11:16:17.548Z,71.35
2022-10-29T11:18:55.127Z,71.88
2022-10-29T11:21:31.655Z,71.29
2022-10-29T11:24:06.298Z,71.54
2022-10-29T11:26:41.621Z,69.70
2022-10-29T11:29:23.094Z,69.91
2022-10-29T11:31:58.681Z,70.99
2022-10-29T11:34:40.224Z,70.34
2022-10-29T11:37:31.739Z,70.94
2022-10-29T11:40:05.953Z,69.63
2022-10-29T11:42:36.285Z,70.08
2022-10-29T11:45:35.803Z,69.61
2022-10-29T11:48:21.328Z,68.97
2022-10-29T11:50:59.218Z,68.63
2022-10-29T11:53:57.811Z,67.71
2022-10-29T11:56:51.547Z,68.41
2022-10-29T11:59:50.340Z,67.55
2022-10-29T12:02:34.311Z,67.47
2022-10-29T12:05:07.671Z,67.66
2022-10-29T12:07:57.523Z,66.32
2022-10-29T12:10:41.272Z,67.06
2022-10-29T12:13:22.240Z,67.14
2022-10-29T12:16:03.119Z,65.17
2022-10-29T12:18:56.708Z,65.62
2022-10-29T12:21:51.332Z,66.46
2022-10-29T12:24:33.306Z,65.84
2022-10-29T12:27:13.202Z,65.07
2022-10-29T12:29:49.914Z,64.97
2022-10-29T12:32:26.474Z,66.10
2022-10-29T12:35:02.895Z,66.03
2022-10-29T12:37:40.776Z,63.71
2022-10-29T12:40:17.989Z,65.70
2022-10-29T12:43:14.725Z,65.57
2022-10-29T12:46:19.010Z,65.92
2022-10-29T12:49:03.533Z,65.01
2022-10-29T12:52:06.482Z,65.95
2022-10-29T12:54:41.095Z,66.05
2022-10-29T12:57:30.713Z,65.58
2022-10-29T13:00:47.819Z,65.36
2022-10-29T13:03:50.369Z,65.93
2022-10-29T13:06:45.365Z,64.70
2022-10-29T13:09:35.854Z,65.85
2022-10-29T13:12:58.752Z,65.80
2022-10-29T13:15:33.318Z,66.13
2022-10-29T13:18:17.536Z,65.11
2022-10-29T13:20:50.636Z,65.39
2022-10-29T13:23:37.306Z,65.86
2022-10-29T13:26:12.937Z,65.94
2022-10-29T13:29:00.606Z,66.40
2022-10-29T13:31:52.820Z,66.28
2022-10-29T13:34:58.078Z,65.74
2022-10-29T13:37:54.591Z,66.53
2022-10-29T13:41:03.554Z,66.25
2022-10-29T13:43:34.156Z,66.44
2022-10-29T13:46:32.579Z,65.42
2022-10-29T13:49:05.913Z,66.59
2022-10-29T13:51:58.472Z,66.44
2022-10-29T13:54:33.460Z,66.62
2022-10-29T13:57:05.943Z,66.22
2022-10-29T13:59:58.972Z,66.28
2022-10-29T14:02:36.763Z,66.71
2022-10-29T14:05:14.033Z,66.27
2022-10-29T14:07:51.924Z,66.16
2022-10-29T14:10:25.546Z,65.79
2022-10-29T14:13:00.245Z,66.55
2022-10-29T14:15:29.526Z,67.07
2022-10-29T14:17:58.775Z,66.47
2022-10-29T14:20:29.754Z,67.11
2022-10-29T14:23:18.823Z,67.28
2022-10-29T14:25:53.392Z,67.10
2022-10-29T14:28:27.243Z,66.98
2022-10-29T14:31:17.037Z,67.04
2022-10-29T14:33:48.063Z,66.94
2022-10-29T14:36:23.433Z,66.48
2022-10-29T14:38:58.266Z,66.94
2022-10-29T14:41:47.506Z,66.63
2022-10-29T14:44:27.027Z,66.11
2022-10-29T14:47:06.955Z,66.47
2022-10-29T14:49:41.074Z,67.00
2022-10-29T14:52:27.756Z,66.81
2022-10-29T14:55:02.145Z,66.61
2022-10-29T14:57:54.386Z,66.55
2022-10-29T15:00:29.975Z,66.48
2022-10-29T15:03:22.664Z,66.65
2022-10-29T15:05:52.685Z,66.60
2022-10-29T15:08:29.243Z,66.25
2022-10-29T15:11:00.160Z,66.02
2022-10-29T15:13:35.409Z,65.84
2022-10-29T15:16:07.688Z,66.37
2022-10-29T15:18:38.793Z,66.69
2022-10-29T15:21:08.308Z,66.62
2022-10-29T15:23:45.178Z,66.77
2022-10-29T15:26:20.520Z,67.13
2022-10-29T15:28:52.280Z,67.00
2022-10-29T15:31:27.678Z,66.91
2022-10-29T15:34:01.376Z,67.01
2022-10-29T15:36:47.015Z,66.94
2022-10-29T15:39:26.739Z,67.08
2022-10-29T15:42:00.994Z,67.19
2022-10-29T15:44:36.204Z,66.93
2022-10-29T15:47:22.375Z,66.95
2022-10-29T15:49:51.431Z,66.99
2022-10-29T15:52:41.211Z,66.81
2022-10-29T15:55:15.735Z,66.74
2022-10-29T15:57:46.743Z,67.37
2022-10-29T16:00:16.800Z,67.23
2022-10-29T16:02:45.970Z,67.50
2022-10-29T16:05:16.477Z,67.30
2022-10-29T16:07:48.198Z,67.52
2022-10-29T16:10:20.107Z,67.77
2022-10-29T16:13:12.283Z,67.89
2022-10-29T16:15:44.197Z,68.08
2022-10-29T16:18:13.529Z,67.81
2022-10-29T16:20:42.771Z,68.10
2022-10-29T16:23:11.868Z,68.40
2022-10-29T16:25:41.803Z,68.23
2022-10-29T16:28:12.680Z,68.53
2022-10-29T16:30:42.330Z,68.63
2022-10-29T16:33:12.538Z,68.62
2022-10-29T16:35:41.793Z,68.87
2022-10-29T16:38:11.783Z,68.65
2022-10-29T16:40:42.688Z,68.90
2022-10-29T16:43:35.438Z,69.37
2022-10-29T16:46:05.664Z,68.95
2022-10-29T16:48:35.068Z,69.02
2022-10-29T16:51:04.434Z,68.92
2022-10-29T16:53:52.928Z,69.07
2022-10-29T16:56:22.163Z,68.98
2022-10-29T16:58:53.420Z,68.74
2022-10-29T17:01:25.387Z,68.96
2022-10-29T17:03:54.461Z,69.06
2022-10-29T17:06:23.484Z,68.86
2022-10-29T17:08:52.670Z,69.09
2022-10-29T17:11:21.703Z,69.02
2022-10-29T17:14:10.983Z,68.76
2022-10-29T17:16:40.237Z,69.01
2022-10-29T17:19:09.288Z,68.95
2022-10-29T17:21:58.733Z,69.08
2022-10-29T17:24:28.785Z,68.97
2022-10-29T17:26:57.886Z,68.56
2022-10-29T17:29:31.372Z,69.07
2022-10-29T17:32:22.732Z,69.20
2022-10-29T17:34:51.919Z,69.28
2022-10-29T17:37:39.439Z,69.22
2022-10-29T17:40:09.991Z,69.26
2022-10-29T17:42:38.982Z,69.67
2022-10-29T17:45:27.978Z,69.17
2022-10-29T17:47:57.842Z,69.54
2022-10-29T17:50:27.956Z,69.69
2022-10-29T17:52:58.868Z,69.87
2022-10-29T17:55:28.030Z,69.85
2022-10-29T17:57:58.337Z,69.51
2022-10-29T18:00:29.251Z,69.69
2022-10-29T18:05:28.968Z,70.05
2022-10-29T18:07:58.405Z,69.92
2022-10-29T18:10:29.115Z,69.88
2022-10-29T18:12:58.115Z,69.78
2022-10-29T18:15:28.709Z,70.29
2022-10-29T18:17:59.809Z,70.44
2022-10-29T18:20:28.933Z,70.37
2022-10-29T18:22:58.890Z,70.57
2022-10-29T18:25:28.220Z,70.35
2022-10-29T18:27:57.711Z,70.51
2022-10-29T18:30:28.096Z,70.47
2022-10-29T18:32:57.465Z,70.52
2022-10-29T18:35:45.170Z,70.74
2022-10-29T18:38:32.567Z,70.88
2022-10-29T18:41:01.845Z,70.98
2022-10-29T18:43:32.443Z,71.00
2022-10-29T18:46:22.027Z,71.16
2022-10-29T18:49:13.069Z,70.87
2022-10-29T18:51:42.651Z,71.20
2022-10-29T18:54:30.371Z,71.61
2022-10-29T18:57:21.086Z,71.48
2022-10-29T18:59:50.496Z,71.44
2022-10-29T19:02:42.907Z,71.58
2022-10-29T19:05:12.225Z,71.62
2022-10-29T19:07:41.429Z,72.05
2022-10-29T19:10:11.456Z,72.12
2022-10-29T19:12:40.526Z,71.50
2022-10-29T19:15:10.613Z,71.54
2022-10-29T19:17:41.079Z,71.74
2022-10-29T19:20:11.471Z,72.16
2022-10-29T19:22:40.433Z,72.15
2022-10-29T19:25:10.388Z,71.93
2022-10-29T19:27:58.566Z,71.99
2022-10-29T19:30:28.016Z,71.91
2022-10-29T19:33:01.187Z,71.97
2022-10-29T19:35:34.276Z,71.72
2022-10-29T19:38:03.542Z,71.80
2022-10-29T19:40:33.009Z,71.58
2022-10-29T19:43:02.100Z,71.56
2022-10-29T19:45:31.615Z,71.70
2022-10-29T19:48:03.482Z,71.60
2022-10-29T19:50:33.140Z,71.42
2022-10-29T19:53:02.459Z,71.88
2022-10-29T19:55:32.091Z,71.42
2022-10-29T19:58:20.086Z,71.27
2022-10-29T20:00:53.268Z,71.15
2022-10-29T20:03:24.088Z,71.47
2022-10-29T20:05:57.075Z,71.29
2022-10-29T20:08:26.194Z,71.63
2022-10-29T20:10:59.004Z,70.94
2022-10-29T20:13:28.615Z,71.17
2022-10-29T20:15:58.494Z,71.36
2022-10-29T20:18:29.052Z,71.15
2022-10-29T20:21:17.169Z,71.24
2022-10-29T20:23:48.189Z,71.09
2022-10-29T20:26:17.452Z,71.06
2022-10-29T20:28:46.731Z,71.11
2022-10-29T20:31:30.155Z,71.04
2022-10-29T20:34:02.757Z,71.31
2022-10-29T20:36:33.520Z,70.99
2022-10-29T20:39:03.132Z,71.18
2022-10-29T20:41:32.940Z,70.99
2022-10-29T20:44:20.516Z,71.08
2022-10-29T20:46:49.778Z,71.40
2022-10-29T20:49:38.708Z,71.01
2022-10-29T20:52:26.168Z,71.28
2022-10-29T20:55:13.950Z,71.25
2022-10-29T20:58:02.053Z,71.34
2022-10-29T21:00:31.405Z,71.12
2022-10-29T21:03:00.474Z,71.19
2022-10-29T21:05:31.022Z,71.24
2022-10-29T21:08:00.661Z,71.17
2022-10-29T21:10:48.855Z,71.00
2022-10-29T21:13:18.284Z,71.00
2022-10-29T21:16:07.656Z,70.78
2022-10-29T21:18:57.242Z,71.10
2022-10-29T21:21:28.898Z,71.19
2022-10-29T21:23:59.336Z,71.01
2022-10-29T21:26:30.212Z,71.11
2022-10-29T21:28:59.479Z,70.94
2022-10-29T21:31:50.124Z,71.10
2022-10-29T21:34:19.436Z,70.74
2022-10-29T21:36:50.050Z,71.09
2022-10-29T21:39:19.320Z,71.00
2022-10-29T21:41:48.373Z,70.66
2022-10-29T21:44:17.415Z,70.96
2022-10-29T21:46:46.648Z,70.88
2022-10-29T21:49:15.694Z,70.54
2022-10-29T21:51:44.645Z,70.66
2022-10-29T21:54:15.279Z,70.80
2022-10-29T21:56:44.386Z,70.59
2022-10-29T21:59:13.790Z,70.79
2022-10-29T22:01:43.125Z,70.66
2022-10-29T22:04:30.739Z,70.68
2022-10-29T22:07:00.068Z,70.83
2022-10-29T22:09:48.875Z,70.95
2022-10-29T22:12:18.089Z,70.91
2022-10-29T22:14:47.741Z,70.81
2022-10-29T22:17:17.525Z,70.85
2022-10-29T22:19:46.875Z,71.23
2022-10-29T22:22:16.008Z,70.92
2022-10-29T22:25:05.381Z,71.13
2022-10-29T22:27:34.648Z,70.84
2022-10-29T22:30:03.768Z,71.31
2022-10-29T22:32:32.836Z,71.06
2022-10-29T22:35:20.456Z,71.07
2022-10-29T22:37:49.796Z,70.86
2022-10-29T22:40:42.726Z,70.94
2022-10-29T22:43:30.403Z,71.35
2022-10-29T22:46:19.504Z,71.42
2022-10-29T22:48:49.073Z,71.03
2022-10-29T22:51:20.098Z,71.26
2022-10-29T22:53:49.566Z,71.25
2022-10-29T22:56:21.758Z,71.28
2022-10-29T22:58:51.706Z,71.45
2022-10-29T23:01:43.982Z,71.13
2022-10-29T23:04:15.637Z,71.32
2022-10-29T23:06:46.486Z,71.41
2022-10-29T23:09:15.751Z,71.09
2022-10-29T23:11:46.116Z,71.32
2022-10-29T23:14:15.142Z,71.35
2022-10-29T23:16:44.353Z,71.23
2022-10-29T23:19:13.347Z,71.84
2022-10-29T23:21:42.530Z,71.73
2022-10-29T23:24:11.992Z,71.63
2022-10-29T23:26:41.036Z,71.49
2022-10-29T23:29:11.441Z,71.52
2022-10-29T23:31:40.665Z,71.42
2022-10-29T23:34:28.152Z,71.70
2022-10-29T23:36:57.731Z,71.81
2022-10-29T23:39:26.791Z,71.67
2022-10-29T23:41:55.792Z,71.83
2022-10-29T23:44:26.442Z,72.10
2022-10-29T23:47:14.151Z,71.74
2022-10-29T23:50:01.768Z,71.89
2022-10-29T23:52:32.140Z,72.13
2022-10-29T23:55:01.192Z,72.00
2022-10-29T23:57:30.188Z,71.80
